sensor_id;sensor_type;location;lat;lon;timestamp;P1;durP1;ratioP1;P2;durP2;ratioP2
68614;SDS011;55593;51.994;5.882;2023-04-01T00:01:52;11.60;;;3.80;;
68614;SDS011;55593;51.994;5.882;2023-04-01T00:04:21;12.63;;;4.03;;
68614;SDS011;55593;51.994;5.882;2023-04-01T00:06:50;9.25;;;3.70;;
68614;SDS011;55593;51.994;5.882;2023-04-01T00:09:20;9.90;;;3.72;;
68614;SDS011;55593;51.994;5.882;2023-04-01T00:11:51;7.72;;;3.72;;
68614;SDS011;55593;51.994;5.882;2023-04-01T00:14:21;13.40;;;4.03;;
68614;SDS011;55593;51.994;5.882;2023-04-01T00:16:50;9.15;;;3.08;;
68614;SDS011;55593;51.994;5.882;2023-04-01T00:19:19;8.40;;;3.60;;
68614;SDS011;55593;51.994;5.882;2023-04-01T00:21:48;12.18;;;4.40;;
68614;SDS011;55593;51.994;5.882;2023-04-01T00:24:18;9.57;;;4.18;;
68614;SDS011;55593;51.994;5.882;2023-04-01T00:26:47;8.55;;;4.50;;
68614;SDS011;55593;51.994;5.882;2023-04-01T00:29:18;8.35;;;4.15;;
68614;SDS011;55593;51.994;5.882;2023-04-01T00:31:49;13.57;;;4.95;;
68614;SDS011;55593;51.994;5.882;2023-04-01T00:34:19;6.30;;;4.18;;
68614;SDS011;55593;51.994;5.882;2023-04-01T00:36:48;14.27;;;5.15;;
68614;SDS011;55593;51.994;5.882;2023-04-01T00:39:18;11.98;;;5.60;;
68614;SDS011;55593;51.994;5.882;2023-04-01T00:41:47;10.05;;;5.20;;
68614;SDS011;55593;51.994;5.882;2023-04-01T00:44:20;13.10;;;6.82;;
68614;SDS011;55593;51.994;5.882;2023-04-01T00:46:51;13.77;;;7.40;;
68614;SDS011;55593;51.994;5.882;2023-04-01T00:49:21;12.32;;;7.20;;
68614;SDS011;55593;51.994;5.882;2023-04-01T00:51:53;10.50;;;6.93;;
68614;SDS011;55593;51.994;5.882;2023-04-01T00:54:25;12.63;;;7.13;;
68614;SDS011;55593;51.994;5.882;2023-04-01T00:56:56;13.55;;;7.80;;
68614;SDS011;55593;51.994;5.882;2023-04-01T00:59:31;16.10;;;9.10;;
68614;SDS011;55593;51.994;5.882;2023-04-01T01:02:04;14.80;;;9.25;;
68614;SDS011;55593;51.994;5.882;2023-04-01T01:04:34;17.55;;;10.70;;
68614;SDS011;55593;51.994;5.882;2023-04-01T01:07:07;18.58;;;10.57;;
68614;SDS011;55593;51.994;5.882;2023-04-01T01:09:43;18.45;;;12.10;;
68614;SDS011;55593;51.994;5.882;2023-04-01T01:12:16;19.90;;;13.45;;
68614;SDS011;55593;51.994;5.882;2023-04-01T01:14:56;20.15;;;13.23;;
68614;SDS011;55593;51.994;5.882;2023-04-01T01:17:31;19.05;;;12.80;;
68614;SDS011;55593;51.994;5.882;2023-04-01T01:20:12;26.48;;;14.55;;
68614;SDS011;55593;51.994;5.882;2023-04-01T01:22:52;27.88;;;14.52;;
68614;SDS011;55593;51.994;5.882;2023-04-01T01:25:54;26.80;;;14.57;;
68614;SDS011;55593;51.994;5.882;2023-04-01T01:28:33;23.20;;;14.27;;
68614;SDS011;55593;51.994;5.882;2023-04-01T01:33:42;33.38;;;16.10;;
68614;SDS011;55593;51.994;5.882;2023-04-01T01:36:29;27.58;;;15.85;;
68614;SDS011;55593;51.994;5.882;2023-04-01T01:39:02;29.65;;;17.38;;
68614;SDS011;55593;51.994;5.882;2023-04-01T01:41:32;25.17;;;15.73;;
68614;SDS011;55593;51.994;5.882;2023-04-01T01:44:04;21.48;;;14.60;;
68614;SDS011;55593;51.994;5.882;2023-04-01T01:46:35;28.27;;;15.30;;
68614;SDS011;55593;51.994;5.882;2023-04-01T01:49:07;25.20;;;14.57;;
68614;SDS011;55593;51.994;5.882;2023-04-01T01:51:40;26.83;;;13.88;;
68614;SDS011;55593;51.994;5.882;2023-04-01T01:54:12;30.48;;;13.45;;
68614;SDS011;55593;51.994;5.882;2023-04-01T01:56:43;23.17;;;12.02;;
68614;SDS011;55593;51.994;5.882;2023-04-01T01:59:15;23.25;;;12.38;;
68614;SDS011;55593;51.994;5.882;2023-04-01T02:01:48;22.52;;;12.13;;
68614;SDS011;55593;51.994;5.882;2023-04-01T02:04:19;32.45;;;13.05;;
68614;SDS011;55593;51.994;5.882;2023-04-01T02:06:53;26.30;;;12.50;;
68614;SDS011;55593;51.994;5.882;2023-04-01T02:09:26;28.38;;;13.48;;
68614;SDS011;55593;51.994;5.882;2023-04-01T02:11:56;31.70;;;12.73;;
68614;SDS011;55593;51.994;5.882;2023-04-01T02:14:26;28.33;;;12.48;;
68614;SDS011;55593;51.994;5.882;2023-04-01T02:16:57;34.88;;;14.43;;
68614;SDS011;55593;51.994;5.882;2023-04-01T02:19:29;32.80;;;12.57;;
68614;SDS011;55593;51.994;5.882;2023-04-01T02:22:05;36.83;;;13.80;;
68614;SDS011;55593;51.994;5.882;2023-04-01T02:24:37;30.80;;;11.27;;
68614;SDS011;55593;51.994;5.882;2023-04-01T02:27:09;21.38;;;10.18;;
68614;SDS011;55593;51.994;5.882;2023-04-01T02:29:38;23.50;;;10.50;;
68614;SDS011;55593;51.994;5.882;2023-04-01T02:32:08;19.20;;;8.60;;
68614;SDS011;55593;51.994;5.882;2023-04-01T02:34:37;29.67;;;9.48;;
68614;SDS011;55593;51.994;5.882;2023-04-01T02:37:09;24.85;;;9.88;;
68614;SDS011;55593;51.994;5.882;2023-04-01T02:39:39;30.40;;;9.75;;
68614;SDS011;55593;51.994;5.882;2023-04-01T02:42:09;26.13;;;9.48;;
68614;SDS011;55593;51.994;5.882;2023-04-01T02:44:38;23.80;;;9.05;;
68614;SDS011;55593;51.994;5.882;2023-04-01T02:47:07;20.67;;;9.18;;
68614;SDS011;55593;51.994;5.882;2023-04-01T02:49:37;24.67;;;8.57;;
68614;SDS011;55593;51.994;5.882;2023-04-01T02:52:10;19.65;;;7.63;;
68614;SDS011;55593;51.994;5.882;2023-04-01T02:54:39;26.58;;;8.60;;
68614;SDS011;55593;51.994;5.882;2023-04-01T02:57:08;24.92;;;7.97;;
68614;SDS011;55593;51.994;5.882;2023-04-01T02:59:37;24.48;;;8.50;;
68614;SDS011;55593;51.994;5.882;2023-04-01T03:02:06;22.10;;;7.70;;
68614;SDS011;55593;51.994;5.882;2023-04-01T03:04:35;17.50;;;7.50;;
68614;SDS011;55593;51.994;5.882;2023-04-01T03:07:05;13.75;;;6.93;;
68614;SDS011;55593;51.994;5.882;2023-04-01T03:09:37;15.98;;;6.32;;
68614;SDS011;55593;51.994;5.882;2023-04-01T03:12:06;11.23;;;6.68;;
68614;SDS011;55593;51.994;5.882;2023-04-01T03:14:45;15.32;;;7.38;;
68614;SDS011;55593;51.994;5.882;2023-04-01T03:17:15;18.77;;;9.40;;
68614;SDS011;55593;51.994;5.882;2023-04-01T03:19:44;15.60;;;7.80;;
68614;SDS011;55593;51.994;5.882;2023-04-01T03:22:13;15.38;;;8.57;;
68614;SDS011;55593;51.994;5.882;2023-04-01T03:24:47;14.70;;;8.82;;
68614;SDS011;55593;51.994;5.882;2023-04-01T03:27:16;16.45;;;8.38;;
68614;SDS011;55593;51.994;5.882;2023-04-01T03:29:45;12.68;;;8.32;;
68614;SDS011;55593;51.994;5.882;2023-04-01T03:32:15;13.95;;;8.48;;
68614;SDS011;55593;51.994;5.882;2023-04-01T03:34:44;17.67;;;8.65;;
68614;SDS011;55593;51.994;5.882;2023-04-01T03:37:13;15.95;;;8.80;;
68614;SDS011;55593;51.994;5.882;2023-04-01T03:39:43;17.48;;;8.80;;
68614;SDS011;55593;51.994;5.882;2023-04-01T03:42:15;13.75;;;8.23;;
68614;SDS011;55593;51.994;5.882;2023-04-01T03:44:44;14.88;;;8.60;;
68614;SDS011;55593;51.994;5.882;2023-04-01T03:47:13;20.23;;;8.93;;
68614;SDS011;55593;51.994;5.882;2023-04-01T03:49:43;16.13;;;9.90;;
68614;SDS011;55593;51.994;5.882;2023-04-01T03:52:12;12.88;;;8.18;;
68614;SDS011;55593;51.994;5.882;2023-04-01T03:54:41;18.77;;;10.27;;
68614;SDS011;55593;51.994;5.882;2023-04-01T03:57:10;17.05;;;10.40;;
68614;SDS011;55593;51.994;5.882;2023-04-01T03:59:42;19.55;;;10.27;;
68614;SDS011;55593;51.994;5.882;2023-04-01T04:02:12;16.67;;;10.20;;
68614;SDS011;55593;51.994;5.882;2023-04-01T04:04:41;16.65;;;10.80;;
68614;SDS011;55593;51.994;5.882;2023-04-01T04:07:12;18.13;;;9.38;;
68614;SDS011;55593;51.994;5.882;2023-04-01T04:10:03;14.52;;;8.60;;
68614;SDS011;55593;51.994;5.882;2023-04-01T04:12:33;17.10;;;9.52;;
68614;SDS011;55593;51.994;5.882;2023-04-01T04:15:05;19.02;;;10.15;;
68614;SDS011;55593;51.994;5.882;2023-04-01T04:17:35;16.00;;;9.55;;
68614;SDS011;55593;51.994;5.882;2023-04-01T04:20:05;18.83;;;10.55;;
68614;SDS011;55593;51.994;5.882;2023-04-01T04:22:35;18.00;;;10.13;;
68614;SDS011;55593;51.994;5.882;2023-04-01T04:25:07;18.20;;;9.80;;
68614;SDS011;55593;51.994;5.882;2023-04-01T04:27:37;15.35;;;10.10;;
68614;SDS011;55593;51.994;5.882;2023-04-01T04:30:11;14.40;;;9.48;;
68614;SDS011;55593;51.994;5.882;2023-04-01T04:32:41;14.02;;;9.23;;
68614;SDS011;55593;51.994;5.882;2023-04-01T04:35:11;14.43;;;9.57;;
68614;SDS011;55593;51.994;5.882;2023-04-01T04:37:41;16.63;;;9.45;;
68614;SDS011;55593;51.994;5.882;2023-04-01T04:40:10;15.57;;;9.55;;
68614;SDS011;55593;51.994;5.882;2023-04-01T04:42:41;16.30;;;10.00;;
68614;SDS011;55593;51.994;5.882;2023-04-01T04:45:16;17.05;;;10.18;;
68614;SDS011;55593;51.994;5.882;2023-04-01T04:47:53;14.95;;;10.18;;
68614;SDS011;55593;51.994;5.882;2023-04-01T04:50:22;15.18;;;9.82;;
68614;SDS011;55593;51.994;5.882;2023-04-01T04:52:52;14.52;;;9.32;;
68614;SDS011;55593;51.994;5.882;2023-04-01T04:55:21;15.55;;;9.85;;
68614;SDS011;55593;51.994;5.882;2023-04-01T04:58:09;15.20;;;9.77;;
68614;SDS011;55593;51.994;5.882;2023-04-01T05:00:44;14.40;;;9.25;;
68614;SDS011;55593;51.994;5.882;2023-04-01T05:03:25;15.90;;;9.80;;
68614;SDS011;55593;51.994;5.882;2023-04-01T05:05:55;15.02;;;9.82;;
68614;SDS011;55593;51.994;5.882;2023-04-01T05:08:24;11.40;;;8.10;;
68614;SDS011;55593;51.994;5.882;2023-04-01T05:10:53;11.80;;;8.18;;
68614;SDS011;55593;51.994;5.882;2023-04-01T05:13:22;14.77;;;9.23;;
68614;SDS011;55593;51.994;5.882;2023-04-01T05:15:54;13.30;;;8.90;;
68614;SDS011;55593;51.994;5.882;2023-04-01T05:18:23;12.00;;;8.70;;
68614;SDS011;55593;51.994;5.882;2023-04-01T05:20:53;10.57;;;7.78;;
68614;SDS011;55593;51.994;5.882;2023-04-01T05:23:23;12.48;;;7.82;;
68614;SDS011;55593;51.994;5.882;2023-04-01T05:25:52;10.73;;;7.88;;
68614;SDS011;55593;51.994;5.882;2023-04-01T05:28:22;11.68;;;7.60;;
68614;SDS011;55593;51.994;5.882;2023-04-01T05:30:54;14.07;;;7.13;;
68614;SDS011;55593;51.994;5.882;2023-04-01T05:33:26;11.48;;;7.30;;
68614;SDS011;55593;51.994;5.882;2023-04-01T05:35:55;9.10;;;7.13;;
68614;SDS011;55593;51.994;5.882;2023-04-01T05:38:25;10.65;;;7.72;;
68614;SDS011;55593;51.994;5.882;2023-04-01T05:40:58;11.38;;;7.30;;
68614;SDS011;55593;51.994;5.882;2023-04-01T05:43:28;9.82;;;7.28;;
68614;SDS011;55593;51.994;5.882;2023-04-01T05:46:10;10.80;;;7.72;;
68614;SDS011;55593;51.994;5.882;2023-04-01T05:48:48;10.80;;;7.30;;
68614;SDS011;55593;51.994;5.882;2023-04-01T05:51:18;11.93;;;6.90;;
68614;SDS011;55593;51.994;5.882;2023-04-01T05:53:47;14.52;;;8.93;;
68614;SDS011;55593;51.994;5.882;2023-04-01T05:56:16;15.40;;;8.70;;
68614;SDS011;55593;51.994;5.882;2023-04-01T05:58:50;15.70;;;8.73;;
68614;SDS011;55593;51.994;5.882;2023-04-01T06:01:24;19.67;;;11.07;;
68614;SDS011;55593;51.994;5.882;2023-04-01T06:03:54;21.95;;;12.85;;
68614;SDS011;55593;51.994;5.882;2023-04-01T06:06:28;21.25;;;11.73;;
68614;SDS011;55593;51.994;5.882;2023-04-01T06:09:12;28.55;;;12.57;;
68614;SDS011;55593;51.994;5.882;2023-04-01T06:12:02;24.60;;;12.10;;
68614;SDS011;55593;51.994;5.882;2023-04-01T06:14:52;23.38;;;11.55;;
68614;SDS011;55593;51.994;5.882;2023-04-01T06:17:34;23.77;;;12.75;;
68614;SDS011;55593;51.994;5.882;2023-04-01T06:20:12;24.58;;;12.13;;
68614;SDS011;55593;51.994;5.882;2023-04-01T06:23:01;28.73;;;12.55;;
68614;SDS011;55593;51.994;5.882;2023-04-01T06:25:40;26.73;;;13.13;;
68614;SDS011;55593;51.994;5.882;2023-04-01T06:31:25;22.88;;;12.23;;
68614;SDS011;55593;51.994;5.882;2023-04-01T06:34:10;29.30;;;12.88;;
68614;SDS011;55593;51.994;5.882;2023-04-01T06:36:56;25.65;;;12.80;;
68614;SDS011;55593;51.994;5.882;2023-04-01T06:42:16;28.33;;;12.73;;
68614;SDS011;55593;51.994;5.882;2023-04-01T06:44:55;28.38;;;11.82;;
68614;SDS011;55593;51.994;5.882;2023-04-01T06:47:55;21.95;;;10.13;;
68614;SDS011;55593;51.994;5.882;2023-04-01T06:51:08;13.98;;;7.72;;
68614;SDS011;55593;51.994;5.882;2023-04-01T06:54:02;16.50;;;7.70;;
68614;SDS011;55593;51.994;5.882;2023-04-01T06:56:53;15.50;;;6.90;;
68614;SDS011;55593;51.994;5.882;2023-04-01T06:59:27;15.10;;;7.40;;
68614;SDS011;55593;51.994;5.882;2023-04-01T07:01:58;16.48;;;7.60;;
68614;SDS011;55593;51.994;5.882;2023-04-01T07:04:30;16.58;;;7.35;;
68614;SDS011;55593;51.994;5.882;2023-04-01T07:07:04;11.50;;;6.05;;
68614;SDS011;55593;51.994;5.882;2023-04-01T07:09:41;12.80;;;6.03;;
68614;SDS011;55593;51.994;5.882;2023-04-01T07:12:47;14.13;;;5.73;;
68614;SDS011;55593;51.994;5.882;2023-04-01T07:15:38;12.10;;;6.10;;
68614;SDS011;55593;51.994;5.882;2023-04-01T07:18:11;10.88;;;5.65;;
68614;SDS011;55593;51.994;5.882;2023-04-01T07:20:44;20.05;;;5.57;;
68614;SDS011;55593;51.994;5.882;2023-04-01T07:23:20;12.32;;;5.75;;
68614;SDS011;55593;51.994;5.882;2023-04-01T07:26:04;12.77;;;4.72;;
68614;SDS011;55593;51.994;5.882;2023-04-01T07:28:59;10.00;;;4.80;;
68614;SDS011;55593;51.994;5.882;2023-04-01T07:31:41;10.23;;;4.43;;
68614;SDS011;55593;51.994;5.882;2023-04-01T07:34:27;7.53;;;3.85;;
68614;SDS011;55593;51.994;5.882;2023-04-01T07:36:58;6.88;;;3.15;;
68614;SDS011;55593;51.994;5.882;2023-04-01T07:39:37;8.15;;;3.33;;
68614;SDS011;55593;51.994;5.882;2023-04-01T07:42:21;6.50;;;3.20;;
68614;SDS011;55593;51.994;5.882;2023-04-01T07:44:54;5.47;;;2.20;;
68614;SDS011;55593;51.994;5.882;2023-04-01T07:47:34;5.13;;;2.60;;
68614;SDS011;55593;51.994;5.882;2023-04-01T07:50:12;5.72;;;2.53;;
68614;SDS011;55593;51.994;5.882;2023-04-01T07:52:47;4.63;;;2.15;;
68614;SDS011;55593;51.994;5.882;2023-04-01T07:55:27;5.32;;;2.50;;
68614;SDS011;55593;51.994;5.882;2023-04-01T07:58:02;4.35;;;2.70;;
68614;SDS011;55593;51.994;5.882;2023-04-01T08:00:40;6.00;;;3.03;;
68614;SDS011;55593;51.994;5.882;2023-04-01T08:03:31;6.20;;;3.28;;
68614;SDS011;55593;51.994;5.882;2023-04-01T08:06:11;6.20;;;3.17;;
68614;SDS011;55593;51.994;5.882;2023-04-01T08:08:47;5.85;;;3.35;;
68614;SDS011;55593;51.994;5.882;2023-04-01T08:11:48;7.30;;;3.95;;
68614;SDS011;55593;51.994;5.882;2023-04-01T08:14:45;8.40;;;4.07;;
68614;SDS011;55593;51.994;5.882;2023-04-01T08:17:41;7.28;;;3.85;;
68614;SDS011;55593;51.994;5.882;2023-04-01T08:20:18;8.75;;;3.22;;
68614;SDS011;55593;51.994;5.882;2023-04-01T08:22:57;5.22;;;3.08;;
68614;SDS011;55593;51.994;5.882;2023-04-01T08:25:35;4.65;;;2.55;;
68614;SDS011;55593;51.994;5.882;2023-04-01T08:28:15;5.50;;;2.67;;
68614;SDS011;55593;51.994;5.882;2023-04-01T08:30:47;7.07;;;2.20;;
68614;SDS011;55593;51.994;5.882;2023-04-01T08:33:20;3.83;;;2.22;;
68614;SDS011;55593;51.994;5.882;2023-04-01T08:35:59;4.25;;;1.75;;
68614;SDS011;55593;51.994;5.882;2023-04-01T08:38:34;2.83;;;1.40;;
68614;SDS011;55593;51.994;5.882;2023-04-01T08:41:20;2.28;;;1.08;;
68614;SDS011;55593;51.994;5.882;2023-04-01T08:44:30;2.15;;;1.10;;
68614;SDS011;55593;51.994;5.882;2023-04-01T08:47:32;1.90;;;1.02;;
68614;SDS011;55593;51.994;5.882;2023-04-01T08:50:24;2.38;;;1.20;;
68614;SDS011;55593;51.994;5.882;2023-04-01T08:58:56;2.20;;;1.30;;
68614;SDS011;55593;51.994;5.882;2023-04-01T09:01:46;3.22;;;1.52;;
68614;SDS011;55593;51.994;5.882;2023-04-01T09:04:51;2.97;;;1.70;;
68614;SDS011;55593;51.994;5.882;2023-04-01T09:07:49;2.75;;;1.17;;
68614;SDS011;55593;51.994;5.882;2023-04-01T09:10:27;3.17;;;1.50;;
68614;SDS011;55593;51.994;5.882;2023-04-01T09:13:29;2.85;;;1.58;;
68614;SDS011;55593;51.994;5.882;2023-04-01T09:16:09;4.43;;;1.73;;
68614;SDS011;55593;51.994;5.882;2023-04-01T09:22:04;5.43;;;2.30;;
68614;SDS011;55593;51.994;5.882;2023-04-01T09:24:46;5.03;;;2.10;;
68614;SDS011;55593;51.994;5.882;2023-04-01T09:27:37;4.57;;;2.40;;
68614;SDS011;55593;51.994;5.882;2023-04-01T09:33:29;4.50;;;2.72;;
68614;SDS011;55593;51.994;5.882;2023-04-01T09:36:16;5.05;;;2.55;;
68614;SDS011;55593;51.994;5.882;2023-04-01T09:38:57;3.60;;;2.13;;
68614;SDS011;55593;51.994;5.882;2023-04-01T09:41:29;5.97;;;2.80;;
68614;SDS011;55593;51.994;5.882;2023-04-01T09:44:14;5.70;;;2.58;;
68614;SDS011;55593;51.994;5.882;2023-04-01T09:47:09;4.22;;;2.53;;
68614;SDS011;55593;51.994;5.882;2023-04-01T09:50:03;4.65;;;2.20;;
68614;SDS011;55593;51.994;5.882;2023-04-01T09:52:47;7.80;;;2.80;;
68614;SDS011;55593;51.994;5.882;2023-04-01T09:55:34;8.77;;;3.08;;
68614;SDS011;55593;51.994;5.882;2023-04-01T09:58:33;5.57;;;3.90;;
68614;SDS011;55593;51.994;5.882;2023-04-01T10:02:08;6.20;;;3.13;;
68614;SDS011;55593;51.994;5.882;2023-04-01T10:08:03;7.28;;;3.72;;
68614;SDS011;55593;51.994;5.882;2023-04-01T10:38:27;10.50;;;5.57;;
68614;SDS011;55593;51.994;5.882;2023-04-01T10:41:13;9.75;;;5.65;;
68614;SDS011;55593;51.994;5.882;2023-04-01T10:47:43;14.57;;;7.65;;
68614;SDS011;55593;51.994;5.882;2023-04-01T10:50:24;13.90;;;8.43;;
68614;SDS011;55593;51.994;5.882;2023-04-01T10:56:36;16.58;;;10.13;;
68614;SDS011;55593;51.994;5.882;2023-04-01T11:06:06;17.58;;;8.98;;
68614;SDS011;55593;51.994;5.882;2023-04-01T11:15:05;12.15;;;7.57;;
68614;SDS011;55593;51.994;5.882;2023-04-01T11:18:07;14.10;;;8.57;;
68614;SDS011;55593;51.994;5.882;2023-04-01T11:24:11;16.90;;;8.85;;
68614;SDS011;55593;51.994;5.882;2023-04-01T11:27:15;3.65;;;2.47;;
68614;SDS011;55593;51.994;5.882;2023-04-01T11:30:07;4.10;;;2.33;;
68614;SDS011;55593;51.994;5.882;2023-04-01T11:32:45;2.80;;;1.83;;
68614;SDS011;55593;51.994;5.882;2023-04-01T11:35:23;6.10;;;2.17;;
68614;SDS011;55593;51.994;5.882;2023-04-01T11:38:01;4.72;;;2.10;;
68614;SDS011;55593;51.994;5.882;2023-04-01T11:40:45;3.63;;;2.20;;
68614;SDS011;55593;51.994;5.882;2023-04-01T11:43:57;3.80;;;2.35;;
68614;SDS011;55593;51.994;5.882;2023-04-01T11:47:01;4.43;;;2.78;;
68614;SDS011;55593;51.994;5.882;2023-04-01T11:49:45;5.70;;;2.70;;
68614;SDS011;55593;51.994;5.882;2023-04-01T11:55:35;7.70;;;2.20;;
68614;SDS011;55593;51.994;5.882;2023-04-01T11:58:13;4.00;;;2.00;;
68614;SDS011;55593;51.994;5.882;2023-04-01T12:00:55;8.23;;;2.05;;
68614;SDS011;55593;51.994;5.882;2023-04-01T12:03:32;3.30;;;2.03;;
68614;SDS011;55593;51.994;5.882;2023-04-01T12:06:11;5.65;;;2.15;;
68614;SDS011;55593;51.994;5.882;2023-04-01T12:08:45;7.13;;;2.38;;
68614;SDS011;55593;51.994;5.882;2023-04-01T12:11:24;7.85;;;2.20;;
68614;SDS011;55593;51.994;5.882;2023-04-01T12:13:59;11.32;;;2.47;;
68614;SDS011;55593;51.994;5.882;2023-04-01T12:16:39;6.28;;;2.35;;
68614;SDS011;55593;51.994;5.882;2023-04-01T12:19:14;4.05;;;2.40;;
68614;SDS011;55593;51.994;5.882;2023-04-01T12:21:50;3.85;;;2.67;;
68614;SDS011;55593;51.994;5.882;2023-04-01T12:24:41;4.25;;;2.90;;
68614;SDS011;55593;51.994;5.882;2023-04-01T12:27:31;5.22;;;2.90;;
68614;SDS011;55593;51.994;5.882;2023-04-01T12:32:57;7.40;;;3.40;;
68614;SDS011;55593;51.994;5.882;2023-04-01T12:35:37;6.60;;;3.65;;
68614;SDS011;55593;51.994;5.882;2023-04-01T12:38:18;5.18;;;3.35;;
68614;SDS011;55593;51.994;5.882;2023-04-01T12:41:02;4.97;;;3.35;;
68614;SDS011;55593;51.994;5.882;2023-04-01T12:46:36;5.28;;;3.30;;
68614;SDS011;55593;51.994;5.882;2023-04-01T12:49:22;6.28;;;4.47;;
68614;SDS011;55593;51.994;5.882;2023-04-01T12:52:04;7.65;;;3.97;;
68614;SDS011;55593;51.994;5.882;2023-04-01T13:04:23;7.57;;;4.05;;
68614;SDS011;55593;51.994;5.882;2023-04-01T13:10:07;9.20;;;5.10;;
68614;SDS011;55593;51.994;5.882;2023-04-01T13:15:30;5.75;;;4.07;;
68614;SDS011;55593;51.994;5.882;2023-04-01T13:18:07;5.10;;;3.25;;
68614;SDS011;55593;51.994;5.882;2023-04-01T13:20:48;6.18;;;3.90;;
68614;SDS011;55593;51.994;5.882;2023-04-01T13:23:24;5.95;;;3.97;;
68614;SDS011;55593;51.994;5.882;2023-04-01T13:26:01;5.68;;;4.03;;
68614;SDS011;55593;51.994;5.882;2023-04-01T13:28:35;6.13;;;4.22;;
68614;SDS011;55593;51.994;5.882;2023-04-01T13:31:08;5.65;;;3.75;;
68614;SDS011;55593;51.994;5.882;2023-04-01T13:33:42;6.00;;;3.92;;
68614;SDS011;55593;51.994;5.882;2023-04-01T13:36:22;5.28;;;3.70;;
68614;SDS011;55593;51.994;5.882;2023-04-01T13:39:01;4.63;;;2.78;;
68614;SDS011;55593;51.994;5.882;2023-04-01T13:41:39;5.90;;;3.13;;
68614;SDS011;55593;51.994;5.882;2023-04-01T13:44:16;3.83;;;2.50;;
68614;SDS011;55593;51.994;5.882;2023-04-01T13:52:52;5.35;;;3.40;;
68614;SDS011;55593;51.994;5.882;2023-04-01T13:55:32;6.85;;;3.00;;
68614;SDS011;55593;51.994;5.882;2023-04-01T13:58:13;3.05;;;1.80;;
68614;SDS011;55593;51.994;5.882;2023-04-01T14:00:54;3.83;;;2.13;;
68614;SDS011;55593;51.994;5.882;2023-04-01T14:03:37;3.50;;;2.40;;
68614;SDS011;55593;51.994;5.882;2023-04-01T14:06:19;3.38;;;2.05;;
68614;SDS011;55593;51.994;5.882;2023-04-01T14:08:59;3.42;;;2.20;;
68614;SDS011;55593;51.994;5.882;2023-04-01T14:11:36;7.60;;;4.20;;
68614;SDS011;55593;51.994;5.882;2023-04-01T14:14:13;6.68;;;3.35;;
68614;SDS011;55593;51.994;5.882;2023-04-01T14:16:58;5.53;;;3.38;;
68614;SDS011;55593;51.994;5.882;2023-04-01T14:19:43;4.20;;;2.72;;
68614;SDS011;55593;51.994;5.882;2023-04-01T14:22:21;6.10;;;3.42;;
68614;SDS011;55593;51.994;5.882;2023-04-01T14:25:05;6.00;;;3.22;;
68614;SDS011;55593;51.994;5.882;2023-04-01T14:27:44;5.40;;;3.35;;
68614;SDS011;55593;51.994;5.882;2023-04-01T14:30:31;6.82;;;3.13;;
68614;SDS011;55593;51.994;5.882;2023-04-01T14:33:12;6.15;;;3.60;;
68614;SDS011;55593;51.994;5.882;2023-04-01T14:35:49;6.22;;;3.97;;
68614;SDS011;55593;51.994;5.882;2023-04-01T14:38:30;20.63;;;13.18;;
68614;SDS011;55593;51.994;5.882;2023-04-01T14:41:09;7.15;;;4.20;;
68614;SDS011;55593;51.994;5.882;2023-04-01T14:43:54;7.57;;;4.72;;
68614;SDS011;55593;51.994;5.882;2023-04-01T14:50:02;5.53;;;3.60;;
68614;SDS011;55593;51.994;5.882;2023-04-01T14:52:35;9.52;;;6.40;;
68614;SDS011;55593;51.994;5.882;2023-04-01T14:55:27;9.15;;;6.32;;
68614;SDS011;55593;51.994;5.882;2023-04-01T14:58:08;8.15;;;6.22;;
68614;SDS011;55593;51.994;5.882;2023-04-01T15:00:47;7.78;;;6.55;;
68614;SDS011;55593;51.994;5.882;2023-04-01T15:03:20;6.50;;;3.90;;
68614;SDS011;55593;51.994;5.882;2023-04-01T15:05:52;13.38;;;7.70;;
68614;SDS011;55593;51.994;5.882;2023-04-01T15:08:25;10.77;;;6.47;;
68614;SDS011;55593;51.994;5.882;2023-04-01T15:16:41;7.50;;;4.93;;
68614;SDS011;55593;51.994;5.882;2023-04-01T15:19:22;7.03;;;4.80;;
68614;SDS011;55593;51.994;5.882;2023-04-01T15:22:05;6.90;;;5.00;;
68614;SDS011;55593;51.994;5.882;2023-04-01T15:24:56;7.00;;;5.30;;
68614;SDS011;55593;51.994;5.882;2023-04-01T15:27:33;8.00;;;5.95;;
68614;SDS011;55593;51.994;5.882;2023-04-01T15:30:19;20.13;;;6.40;;
68614;SDS011;55593;51.994;5.882;2023-04-01T15:32:58;8.85;;;6.10;;
68614;SDS011;55593;51.994;5.882;2023-04-01T15:35:38;11.23;;;6.32;;
68614;SDS011;55593;51.994;5.882;2023-04-01T15:38:11;9.75;;;5.97;;
68614;SDS011;55593;51.994;5.882;2023-04-01T15:40:51;10.32;;;6.65;;
68614;SDS011;55593;51.994;5.882;2023-04-01T15:43:26;8.27;;;5.70;;
68614;SDS011;55593;51.994;5.882;2023-04-01T15:46:09;10.38;;;6.65;;
68614;SDS011;55593;51.994;5.882;2023-04-01T15:49:00;9.10;;;6.75;;
68614;SDS011;55593;51.994;5.882;2023-04-01T15:54:25;10.68;;;7.85;;
68614;SDS011;55593;51.994;5.882;2023-04-01T15:57:03;16.05;;;10.55;;
68614;SDS011;55593;51.994;5.882;2023-04-01T15:59:47;9.30;;;7.40;;
68614;SDS011;55593;51.994;5.882;2023-04-01T16:02:28;10.02;;;7.82;;
68614;SDS011;55593;51.994;5.882;2023-04-01T16:05:00;12.80;;;8.70;;
68614;SDS011;55593;51.994;5.882;2023-04-01T16:07:41;8.75;;;6.50;;
68614;SDS011;55593;51.994;5.882;2023-04-01T16:10:17;7.57;;;6.13;;
68614;SDS011;55593;51.994;5.882;2023-04-01T16:12:53;11.30;;;7.57;;
68614;SDS011;55593;51.994;5.882;2023-04-01T16:15:34;7.20;;;5.55;;
68614;SDS011;55593;51.994;5.882;2023-04-01T16:18:25;7.35;;;5.82;;
68614;SDS011;55593;51.994;5.882;2023-04-01T16:21:00;12.35;;;6.35;;
68614;SDS011;55593;51.994;5.882;2023-04-01T16:23:34;9.20;;;7.05;;
68614;SDS011;55593;51.994;5.882;2023-04-01T16:26:07;7.15;;;6.05;;
68614;SDS011;55593;51.994;5.882;2023-04-01T16:28:40;6.38;;;5.57;;
68614;SDS011;55593;51.994;5.882;2023-04-01T16:31:13;9.65;;;6.95;;
68614;SDS011;55593;51.994;5.882;2023-04-01T16:33:49;12.95;;;8.30;;
68614;SDS011;55593;51.994;5.882;2023-04-01T16:36:22;11.52;;;8.15;;
68614;SDS011;55593;51.994;5.882;2023-04-01T16:38:58;7.82;;;6.50;;
68614;SDS011;55593;51.994;5.882;2023-04-01T16:41:39;9.40;;;6.05;;
68614;SDS011;55593;51.994;5.882;2023-04-01T16:44:13;9.07;;;6.63;;
68614;SDS011;55593;51.994;5.882;2023-04-01T16:46:48;7.32;;;5.38;;
68614;SDS011;55593;51.994;5.882;2023-04-01T16:49:29;8.23;;;5.55;;
68614;SDS011;55593;51.994;5.882;2023-04-01T16:52:04;8.32;;;5.82;;
68614;SDS011;55593;51.994;5.882;2023-04-01T16:54:44;7.07;;;5.10;;
68614;SDS011;55593;51.994;5.882;2023-04-01T16:57:18;8.07;;;6.28;;
68614;SDS011;55593;51.994;5.882;2023-04-01T16:59:53;9.27;;;6.72;;
68614;SDS011;55593;51.994;5.882;2023-04-01T17:02:26;11.00;;;7.60;;
68614;SDS011;55593;51.994;5.882;2023-04-01T17:05:03;8.32;;;5.68;;
68614;SDS011;55593;51.994;5.882;2023-04-01T17:07:39;8.27;;;6.28;;
68614;SDS011;55593;51.994;5.882;2023-04-01T17:13:18;8.40;;;6.38;;
68614;SDS011;55593;51.994;5.882;2023-04-01T17:15:59;10.65;;;7.50;;
68614;SDS011;55593;51.994;5.882;2023-04-01T17:18:34;8.95;;;6.35;;
68614;SDS011;55593;51.994;5.882;2023-04-01T17:21:10;7.10;;;6.00;;
68614;SDS011;55593;51.994;5.882;2023-04-01T17:23:43;9.98;;;5.63;;
68614;SDS011;55593;51.994;5.882;2023-04-01T17:26:25;7.18;;;5.72;;
68614;SDS011;55593;51.994;5.882;2023-04-01T17:28:58;7.43;;;6.60;;
68614;SDS011;55593;51.994;5.882;2023-04-01T17:31:35;7.00;;;5.90;;
68614;SDS011;55593;51.994;5.882;2023-04-01T17:34:19;8.45;;;6.95;;
68614;SDS011;55593;51.994;5.882;2023-04-01T17:36:59;7.82;;;5.82;;
68614;SDS011;55593;51.994;5.882;2023-04-01T17:39:44;9.07;;;5.63;;
68614;SDS011;55593;51.994;5.882;2023-04-01T17:42:19;8.88;;;7.15;;